createdAt,value
2019-06-10T00:01:11.923Z,93.70
2019-06-10T00:03:51.707Z,93.50
2019-06-10T00:06:22.243Z,95.20
2019-06-10T00:38:33.805Z,95.20
2019-06-10T00:41:42.949Z,95.10
2019-06-10T00:48:25.244Z,94.30
2019-06-10T00:51:04.053Z,94.40
2019-06-10T00:53:45.342Z,95.10
2019-06-10T00:56:56.507Z,95.00
2019-06-10T01:03:35.293Z,95.20
2019-06-10T01:09:08.717Z,95.00
2019-06-10T01:12:04.898Z,94.00
2019-06-10T01:14:43.154Z,94.70
2019-06-10T01:17:21.724Z,95.10
2019-06-10T01:23:41.651Z,94.30
2019-06-10T01:29:51.179Z,95.30
2019-06-10T01:39:36.323Z,94.30
2019-06-10T01:42:47.931Z,94.70
2019-06-10T01:46:14.139Z,95.30
2019-06-10T01:56:26.643Z,93.80
2019-06-10T02:12:56.987Z,94.70
2019-06-10T02:22:16.696Z,96.00
2019-06-10T02:25:15.184Z,96.30
2019-06-10T02:28:24.309Z,96.30
2019-06-10T02:31:30.501Z,95.80
2019-06-10T02:38:06.761Z,95.10
2019-06-10T02:41:20.643Z,93.60
2019-06-10T02:44:31.897Z,94.70
2019-06-10T03:05:24.878Z,94.90
2019-06-10T03:14:38.713Z,95.80
2019-06-10T03:17:43.021Z,96.10
2019-06-10T03:21:05.075Z,95.40
2019-06-10T03:24:17.017Z,95.70
2019-06-10T03:26:52.199Z,94.60
2019-06-10T03:29:44.482Z,94.10
2019-06-10T03:32:46.764Z,94.50
2019-06-10T03:35:42.314Z,94.90
2019-06-10T03:41:15.050Z,94.10
2019-06-10T03:43:50.209Z,94.90
2019-06-10T03:46:44.117Z,95.40
2019-06-10T03:49:49.049Z,94.80
2019-06-10T03:52:13.713Z,94.70
2019-06-10T03:55:07.925Z,95.30
2019-06-10T03:57:42.254Z,94.60
2019-06-10T04:00:32.723Z,95.50
2019-06-10T04:03:24.803Z,95.30
2019-06-10T04:05:57.444Z,95.60
2019-06-10T04:11:35.772Z,95.80
2019-06-10T04:14:12.786Z,95.30
2019-06-10T04:16:46.616Z,94.80
2019-06-10T04:19:43.283Z,95.40
2019-06-10T04:22:19.616Z,95.80
2019-06-10T04:24:59.573Z,96.20
2019-06-10T04:27:38.909Z,95.70
2019-06-10T04:30:15.856Z,95.80
2019-06-10T04:35:26.240Z,95.30
2019-06-10T04:38:02.514Z,96.50
2019-06-10T04:40:38.535Z,95.90
2019-06-10T04:46:26.240Z,95.80
2019-06-10T04:49:02.509Z,96.00
2019-06-10T04:51:36.237Z,96.30
2019-06-10T04:54:08.735Z,95.50
2019-06-10T04:56:52.738Z,94.80
2019-06-10T04:59:28.743Z,94.60
2019-06-10T05:05:26.910Z,94.00
2019-06-10T05:08:36.895Z,94.20
2019-06-10T05:13:58.701Z,91.40
2019-06-10T05:16:35.947Z,91.40
2019-06-10T05:19:13.317Z,90.00
2019-06-10T05:21:45.058Z,88.50
2019-06-10T05:24:18.191Z,89.20
2019-06-10T05:26:52.683Z,90.60
2019-06-10T05:29:28.035Z,91.40
2019-06-10T05:32:09.511Z,88.50
2019-06-10T05:34:43.803Z,90.40
2019-06-10T05:37:17.196Z,91.50
2019-06-10T05:39:49.045Z,91.00
2019-06-10T05:42:33.536Z,90.80
2019-06-10T05:45:27.881Z,87.20
2019-06-10T05:48:05.173Z,86.50
2019-06-10T05:51:06.703Z,87.10
2019-06-10T05:53:44.429Z,86.00
2019-06-10T05:56:12.896Z,86.10
2019-06-10T05:58:53.015Z,87.10
2019-06-10T06:01:24.534Z,88.20
2019-06-10T06:03:55.748Z,91.00
2019-06-10T06:06:27.059Z,91.90
2019-06-10T06:08:57.355Z,91.30
2019-06-10T06:11:27.926Z,91.20
2019-06-10T06:13:58.081Z,91.70
2019-06-10T06:16:28.196Z,91.10
2019-06-10T06:18:59.432Z,90.00
2019-06-10T06:21:34.772Z,87.90
2019-06-10T06:24:04.058Z,82.70
2019-06-10T06:26:36.277Z,81.40
2019-06-10T06:29:05.174Z,82.40
2019-06-10T06:31:36.492Z,81.30
2019-06-10T06:34:07.120Z,80.00
2019-06-10T06:36:38.380Z,84.00
2019-06-10T06:39:09.418Z,88.60
2019-06-10T06:41:44.165Z,86.50
2019-06-10T06:44:20.379Z,85.00
2019-06-10T06:46:53.312Z,81.90
2019-06-10T06:49:24.899Z,84.40
2019-06-10T06:51:59.402Z,84.20
2019-06-10T06:54:33.432Z,83.80
2019-06-10T06:57:10.125Z,78.40
2019-06-10T06:59:43.200Z,79.50
2019-06-10T07:02:22.713Z,75.90
2019-06-10T07:05:35.962Z,80.80
2019-06-10T07:08:07.363Z,78.60
2019-06-10T07:11:02.686Z,74.90
2019-06-10T07:24:34.070Z,71.00
2019-06-10T07:27:46.973Z,64.30
2019-06-10T07:33:59.228Z,68.70
2019-06-10T07:36:56.812Z,71.40
2019-06-10T07:39:54.522Z,67.20
2019-06-10T07:42:26.091Z,66.90
2019-06-10T07:44:56.248Z,68.20
2019-06-10T07:47:27.812Z,63.30
2019-06-10T07:49:57.999Z,63.00
2019-06-10T07:52:33.138Z,63.00
2019-06-10T07:55:05.122Z,61.90
2019-06-10T07:57:36.003Z,57.80
2019-06-10T08:00:08.973Z,56.40
2019-06-10T08:02:42.084Z,55.30
2019-06-10T08:05:13.362Z,55.20
2019-06-10T08:07:46.895Z,47.90
2019-06-10T08:10:19.041Z,47.40
2019-06-10T08:12:49.671Z,49.30
2019-06-10T08:15:22.882Z,51.80
2019-06-10T08:17:54.089Z,50.50
2019-06-10T08:20:45.041Z,51.90
2019-06-10T08:23:16.583Z,50.60
2019-06-10T08:25:53.373Z,49.10
2019-06-10T08:28:19.068Z,51.90
2019-06-10T08:30:49.294Z,49.40
2019-06-10T08:33:19.510Z,51.10
2019-06-10T08:35:57.290Z,52.90
2019-06-10T08:38:23.946Z,50.70
2019-06-10T08:40:54.095Z,51.60
2019-06-10T08:43:24.316Z,55.60
2019-06-10T08:45:54.398Z,55.30
2019-06-10T08:48:24.657Z,54.20
2019-06-10T08:50:56.906Z,54.00
2019-06-10T08:53:28.315Z,53.80
2019-06-10T08:55:58.435Z,54.30
2019-06-10T08:58:33.580Z,53.40
2019-06-10T09:01:03.803Z,54.80
2019-06-10T09:03:34.272Z,56.80
2019-06-10T09:06:04.475Z,59.60
2019-06-10T09:08:36.301Z,60.70
2019-06-10T09:11:06.557Z,54.50
2019-06-10T09:13:36.685Z,53.80
2019-06-10T09:16:14.914Z,62.80
2019-06-10T09:18:40.052Z,65.70
2019-06-10T09:21:12.966Z,66.20
2019-06-10T09:23:47.121Z,59.70
2019-06-10T09:26:15.015Z,69.40
2019-06-10T09:28:49.220Z,63.90
2019-06-10T09:31:18.394Z,64.30
2019-06-10T09:33:52.173Z,58.40
2019-06-10T09:36:23.630Z,56.70
2019-06-10T09:38:58.210Z,53.90
2019-06-10T09:41:39.452Z,49.10
2019-06-10T09:44:04.037Z,51.80
2019-06-10T09:46:36.237Z,46.70
2019-06-10T09:49:06.551Z,42.60
2019-06-10T09:51:36.762Z,41.90
2019-06-10T09:54:26.477Z,37.10
2019-06-10T09:56:56.724Z,33.60
2019-06-10T09:59:26.951Z,32.90
2019-06-10T10:02:00.247Z,35.30
2019-06-10T10:04:28.952Z,32.70
2019-06-10T10:06:59.257Z,35.60
2019-06-10T10:09:36.847Z,32.20
2019-06-10T10:12:05.834Z,30.80
2019-06-10T10:14:35.958Z,31.90
2019-06-10T10:17:06.214Z,33.40
2019-06-10T10:19:36.294Z,31.10
2019-06-10T10:22:06.465Z,30.70
2019-06-10T10:24:36.641Z,33.40
2019-06-10T10:27:09.412Z,32.50
2019-06-10T10:29:39.150Z,31.80
2019-06-10T10:32:14.065Z,30.70
2019-06-10T10:34:47.010Z,29.10
2019-06-10T10:37:22.957Z,34.40
2019-06-10T10:39:56.443Z,32.50
2019-06-10T10:42:39.167Z,33.90
2019-06-10T10:44:59.247Z,32.30
2019-06-10T10:47:33.566Z,31.20
2019-06-10T10:50:03.224Z,30.70
2019-06-10T10:52:34.614Z,29.70
2019-06-10T10:55:07.007Z,30.90
2019-06-10T10:57:37.505Z,32.80
2019-06-10T11:00:08.031Z,32.00
2019-06-10T11:02:39.873Z,30.10
2019-06-10T11:05:12.798Z,32.30
2019-06-10T11:10:19.133Z,31.20
2019-06-10T11:12:49.388Z,33.00
2019-06-10T11:15:24.462Z,36.60
2019-06-10T11:17:56.372Z,35.90
2019-06-10T11:20:26.716Z,36.40
2019-06-10T11:22:57.977Z,36.50
2019-06-10T11:25:28.948Z,37.90
2019-06-10T11:27:59.715Z,37.80
2019-06-10T11:30:32.259Z,37.50
2019-06-10T11:33:03.490Z,39.20
2019-06-10T11:35:42.819Z,39.10
2019-06-10T11:38:19.274Z,38.10
2019-06-10T11:40:49.904Z,38.80
2019-06-10T11:43:22.636Z,38.80
2019-06-10T11:46:01.190Z,39.90
2019-06-10T11:48:26.454Z,42.50
2019-06-10T11:51:00.860Z,41.10
2019-06-10T11:53:31.473Z,40.20
2019-06-10T11:56:02.443Z,37.80
2019-06-10T11:58:33.442Z,37.30
2019-06-10T12:01:18.747Z,38.30
2019-06-10T12:03:51.149Z,39.50
2019-06-10T12:06:22.836Z,41.80
2019-06-10T12:08:57.351Z,40.50
2019-06-10T12:11:26.075Z,39.50
2019-06-10T12:14:04.193Z,38.80
2019-06-10T12:17:15.597Z,38.80
2019-06-10T12:19:12.696Z,40.50
2019-06-10T12:21:55.683Z,42.30
2019-06-10T12:24:46.819Z,41.40
2019-06-10T12:27:23.219Z,40.60
2019-06-10T12:30:04.995Z,41.80
2019-06-10T12:32:48.768Z,37.50
2019-06-10T12:35:22.827Z,36.50
2019-06-10T12:37:55.061Z,34.90
2019-06-10T12:40:24.975Z,35.20
2019-06-10T12:43:00.305Z,35.60
2019-06-10T12:45:32.617Z,34.80
2019-06-10T12:48:08.552Z,36.90
2019-06-10T12:50:43.029Z,38.70
2019-06-10T12:53:14.146Z,41.60
2019-06-10T12:55:47.291Z,39.40
2019-06-10T12:58:22.619Z,39.10
2019-06-10T13:00:55.621Z,40.70
2019-06-10T13:03:28.654Z,45.50
2019-06-10T13:06:12.862Z,45.90
2019-06-10T13:08:49.394Z,49.10
2019-06-10T13:11:19.838Z,50.40
2019-06-10T13:13:53.091Z,52.00
2019-06-10T13:16:34.101Z,57.20
2019-06-10T13:19:16.722Z,57.50
2019-06-10T13:21:53.080Z,55.60
2019-06-10T13:24:25.787Z,58.10
2019-06-10T13:26:56.817Z,58.10
2019-06-10T13:29:27.232Z,54.70
2019-06-10T13:32:00.722Z,73.30
2019-06-10T13:34:33.281Z,78.00
2019-06-10T13:37:24.934Z,83.70
2019-06-10T13:39:59.447Z,88.30
2019-06-10T13:42:33.222Z,90.70
2019-06-10T13:45:05.102Z,91.00
2019-06-10T13:47:34.339Z,91.10
2019-06-10T13:50:11.260Z,91.70
2019-06-10T13:52:42.580Z,88.50
2019-06-10T13:55:13.627Z,91.10
2019-06-10T13:57:45.563Z,91.00
2019-06-10T14:00:16.665Z,91.80
2019-06-10T14:02:48.510Z,90.70
2019-06-10T14:05:18.943Z,92.70
2019-06-10T14:07:49.315Z,93.20
2019-06-10T14:10:22.618Z,93.20
2019-06-10T14:12:53.249Z,94.20
2019-06-10T14:15:24.331Z,94.40
2019-06-10T14:17:56.787Z,93.60
2019-06-10T14:20:28.386Z,93.60
2019-06-10T14:22:58.552Z,93.60
2019-06-10T14:25:29.288Z,93.80
2019-06-10T14:28:04.357Z,92.90
2019-06-10T14:30:32.981Z,91.80
2019-06-10T14:33:04.195Z,91.50
2019-06-10T14:35:35.499Z,92.40
2019-06-10T14:38:08.067Z,92.10
2019-06-10T14:40:39.380Z,90.30
2019-06-10T14:43:13.523Z,90.90
2019-06-10T14:46:04.801Z,90.90
2019-06-10T14:48:36.829Z,92.40
2019-06-10T14:51:33.521Z,92.90
2019-06-10T14:54:32.108Z,90.70
2019-06-10T14:57:19.626Z,88.10
2019-06-10T14:59:56.991Z,90.00
2019-06-10T15:02:36.239Z,91.20
2019-06-10T15:05:45.137Z,91.30
2019-06-10T15:08:32.125Z,91.10
2019-06-10T15:11:13.940Z,88.80
2019-06-10T15:13:48.507Z,87.90
2019-06-10T15:16:25.647Z,81.70
2019-06-10T15:19:11.813Z,82.40
2019-06-10T15:22:04.579Z,82.70
2019-06-10T15:25:03.357Z,81.20
2019-06-10T15:27:39.723Z,74.10
2019-06-10T15:30:25.799Z,77.60
2019-06-10T15:32:52.413Z,80.10
2019-06-10T15:35:24.584Z,78.10
2019-06-10T15:37:59.939Z,74.40
2019-06-10T15:40:32.527Z,70.30
2019-06-10T15:43:07.520Z,79.30
2019-06-10T15:45:43.197Z,63.40
2019-06-10T15:48:18.433Z,68.10
2019-06-10T15:50:48.631Z,68.90
2019-06-10T15:53:25.578Z,69.30
2019-06-10T15:56:14.472Z,65.90
2019-06-10T15:58:32.254Z,63.60
2019-06-10T16:03:43.251Z,75.30
2019-06-10T16:06:14.146Z,74.90
2019-06-10T16:08:48.711Z,81.50
2019-06-10T16:11:26.696Z,81.30
2019-06-10T16:13:55.732Z,78.80
2019-06-10T16:16:25.890Z,83.20
2019-06-10T16:18:56.360Z,81.00
2019-06-10T16:21:28.239Z,75.60
2019-06-10T16:24:03.187Z,82.00
2019-06-10T16:26:35.585Z,86.30
2019-06-10T16:29:14.999Z,90.60
2019-06-10T16:32:26.508Z,91.60
2019-06-10T16:35:06.744Z,92.20
2019-06-10T16:49:12.991Z,83.30
2019-06-10T16:51:52.110Z,83.40
2019-06-10T16:54:32.844Z,85.30
2019-06-10T16:57:06.471Z,87.30
2019-06-10T16:59:56.306Z,87.50
2019-06-10T17:02:29.822Z,83.90
2019-06-10T17:20:04.382Z,85.80
2019-06-10T17:22:35.412Z,88.00
2019-06-10T17:25:08.344Z,88.80
2019-06-10T17:27:43.539Z,89.10
2019-06-10T17:30:14.133Z,87.10
2019-06-10T17:32:47.284Z,88.40
2019-06-10T17:35:47.140Z,89.80
2019-06-10T17:38:26.755Z,86.50
2019-06-10T17:41:03.707Z,85.20
2019-06-10T17:43:36.573Z,88.10
2019-06-10T17:46:35.291Z,89.80
2019-06-10T17:49:12.910Z,91.20
2019-06-10T17:52:06.242Z,93.70
2019-06-10T18:13:28.059Z,96.70
2019-06-10T18:16:26.184Z,96.20
2019-06-10T18:19:11.494Z,95.90
2019-06-10T18:22:13.976Z,95.70
2019-06-10T18:25:38.885Z,96.60
2019-06-10T18:36:05.629Z,94.10
2019-06-10T18:39:08.666Z,94.90
2019-06-10T18:46:05.597Z,93.80
2019-06-10T18:49:37.516Z,95.50
2019-06-10T19:07:53.501Z,96.00
2019-06-10T19:10:33.949Z,94.10
2019-06-10T19:13:13.014Z,95.70
2019-06-10T19:15:46.968Z,96.50
2019-06-10T19:22:30.124Z,98.40
2019-06-10T19:25:45.758Z,98.40
2019-06-10T19:31:29.390Z,95.80
2019-06-10T19:34:16.097Z,96.10
2019-06-10T19:36:56.727Z,95.40
2019-06-10T19:39:43.519Z,95.40
2019-06-10T19:42:15.532Z,96.30
2019-06-10T19:44:52.689Z,96.40
2019-06-10T19:47:26.612Z,96.40
2019-06-10T19:49:59.894Z,97.90
2019-06-10T19:52:41.610Z,97.80
2019-06-10T19:55:19.777Z,96.40
2019-06-10T19:58:03.656Z,97.00
2019-06-10T20:00:50.802Z,97.50
2019-06-10T20:03:22.352Z,97.30
2019-06-10T20:06:23.946Z,97.70
2019-06-10T20:09:02.586Z,98.40
2019-06-10T20:11:35.035Z,97.40
2019-06-10T20:14:12.851Z,97.50
2019-06-10T20:16:46.131Z,97.90
2019-06-10T20:19:22.433Z,98.10
2019-06-10T20:21:55.459Z,97.70
2019-06-10T20:24:59.070Z,98.40
2019-06-10T22:52:47.231Z,97.90
2019-06-10T22:55:35.663Z,99.50
2019-06-10T22:58:17.234Z,98.40
2019-06-10T23:03:56.325Z,99.50
2019-06-10T23:06:56.596Z,98.00
